FMEPFIMP

Guest
Details From FMEP - ST PIERRE PIERREFONDS
To FIMP - SIR SEEWOOSAGUR RAMGOOLAM INTL
Flight Number -
Tags generated
Created
Modified
Stats Distance 138 nm / 256 km
Max Altitude 17,300 ft / 5,273 m
Waypoints 4
Social Downloads 1
Likes 0
Share VATSIM

Download

Looking for another format? Having issues loading an existing format? Contact us
Advertisement - Login to hide

Notes

Basic altitude profile: - Ascent Rate: 1500ft/min - Ascent Speed: 300kts - Cruise Altitude: 17000ft - Cruise Speed: 320kts - Descent Rate: 1500ft/min - Descent Speed: 250kts Options: - Use NATs: yes - Use PACOTS: yes - Use low airways: yes - Use high airways: yes

Route

FMEP PASAR A402F PLS FIMP

ID Type Via Altitude Latitude Longitude Leg Dist Tot Dist Heading (true) Name
O FMEP APT - 0 ft / 0 m -21.32004˚ 55.42358˚ - 0 nm - ST PIERRE PIERREFONDS
PASAR FIX - 17,300 ft / 5,273 m -21.01800˚ 56.39944˚ 57 nm 57 nm 72° / 71° -
PLS VOR A402F (AWY-LO) 3,500 ft / 1,067 m -20.42003˚ 57.66233˚ 79 nm 137 nm 63° / 63° PLAISANCE VOR-DME
O FIMP APT - 0 ft / 0 m -20.43023˚ 57.68360˚ 1 nm 138 nm 117° / 117° SIR SEEWOOSAGUR RAMGOOLAM INTL

Altitude Profile

Advertisement - Login to hide

FMEP

Details ICAO FMEP (ZSE)
Name ST PIERRE PIERREFONDS
Region Comoros, Mayotte, Réunion and Madagascar
Timezone Unknown (UTC+0.0)
Stats Elevation 56 ft / 17 m (AMSL)
Location -21.320039° 55.423581°
Runways 1
Magnetic Variation 19.532° W

METAR

FMEP 130000Z AUTO 04004KT CAVOK 24/20 Q1015

Decode

TAF

Not found

Departure Runways

ID Width Length Bearing (true) Bearing (mag) Surface Threshold Offset Overrun Length
15 98 ft / 30 m 6,125 ft / 1,867 m 129.02° 148.55° Asphalt 0 ft / 0 m 0 ft / 0 m
33 98 ft / 30 m 6,125 ft / 1,867 m 309.01° 328.54° Asphalt 0 ft / 0 m 0 ft / 0 m

FIMP

Details ICAO FIMP (MRU)
Name SIR SEEWOOSAGUR RAMGOOLAM INTL
Region Mauritius
Timezone Indian/Mauritius (UTC+4.0)
Stats Elevation 186 ft / 57 m (AMSL)
Location -20.430235° 57.683602°
Runways 1
Magnetic Variation 18.413° W

METAR

FIMP 130000Z 06007KT 9999 SCT016 BKN050 26/24 Q1016

Decode

TAF

TAF FIMP 122300Z 1300/1406 33003KT 9999 SCT015 TEMPO 1300/1303 7000 -SHRA FEW010 BKN015 BKN050 BECMG 1304/1306 08005KT TEMPO 1309/1406 7000 -SHRA FEW008 BKN014

Decode

Destination Runways

ID Width Length Bearing (true) Bearing (mag) Surface Threshold Offset Overrun Length
14 148 ft / 45 m 11,037 ft / 3,364 m 117.22° 135.63° Asphalt 1,082 ft / 330 m 200 ft / 61 m
32 148 ft / 45 m 11,037 ft / 3,364 m 297.21° 315.62° Asphalt 0 ft / 0 m 0 ft / 0 m

Approach Navaids

Runway Type Ident Frequency Range Bearing (true) Bearing (mag) Slope Elevation
14 Localiser IPL 109.90 MHz 18 nm / 33 km 117.52° 135.93° - 186 ft / 57 m (AMSL)
14 Glidescope IPL 109.90 MHz 10 nm / 19 km 117.22° 135.63° 3.50° 186 ft / 57 m (AMSL)
14 DME IPL 109.90 MHz 18 nm / 33 km - - - 186 ft / 57 m (AMSL)

Popular Alternatives